METAR Data
IDs: Format: Raw Decoded Include TAF

Data at: 2155 UTC 08 Aug 2020

KIWA 082150Z 28010G14KT 10SM SCT200 43/07 A2986 RMK TCU DSNT N-SE
KIWA 082047Z 28005KT 10SM SCT200 42/05 A2988 RMK TCU DSNT N-SE
KIWA 081947Z 27005KT 10SM SCT200 40/08 A2990 RMK TCU DSNT N-SE
KIWA 081855Z 01003KT 10SM SCT200 39/09 A2992 RMK TCU DSNT N-SE
KIWA 081747Z 00000KT 10SM SCT200 38/09 A2994 RMK TCU DSNT ALQDS.
KIWA 081655Z 00000KT 10SM FEW200 36/09 A2995
KIWA 081555Z 00000KT 10SM FEW200 35/11 A2995
KIWA 081455Z 13008KT 10SM FEW200 32/11 A2995
KIWA 081350Z 11005KT 10SM FEW200 29/08 A2994
KIWA 081250Z 10005KT 10SM FEW200 28/07 A2992
KIWA 081150Z 13007KT 10SM FEW200 28/08 A2990
KIWA 081135Z AUTO 12006KT 10SM CLR 28/07 A2990 RMK AO2 T02790068
KIWA 081115Z AUTO 00000KT 10SM CLR 28/06 A2989 RMK AO2 T02850064
KIWA 081055Z AUTO 10003KT 10SM CLR 29/07 A2989 RMK AO2 T02900066
KIWA 081035Z AUTO 08004KT 10SM CLR 29/07 A2989 RMK AO2 T02900066
KIWA 081015Z AUTO 09005KT 10SM CLR 29/07 A2989 RMK AO2 T02900073
KIWA 080955Z AUTO 12005KT 10SM CLR 29/08 A2989 RMK AO2 T02910076
KIWA 080935Z AUTO 12005KT 10SM CLR 29/07 A2989 RMK AO2 T02950071
KIWA 080915Z AUTO 10007KT 10SM CLR 30/08 A2989 RMK AO2 T02990078
KIWA 080855Z AUTO 11006KT 10SM CLR 31/08 A2988 RMK AO2 T03060082
KIWA 080835Z AUTO 10003KT 10SM CLR 31/09 A2988 RMK AO2 T03140091
KIWA 080815Z AUTO 11003KT 10SM CLR 32/09 A2988 RMK AO2 T03160094
KIWA 080755Z AUTO 00000KT 10SM CLR 33/10 A2988 RMK AO2 T03260101
KIWA 080735Z AUTO 00000KT 10SM CLR 32/09 A2988 RMK AO2 T03220095
KIWA 080715Z AUTO 23006KT 10SM CLR 33/10 A2988 RMK AO2 T03280099
KIWA 080650Z 23004KT 10SM FEW200 33/10 A2988
KIWA 080550Z 00000KT 10SM FEW200 33/09 A2986
KIWA 080450Z 02005KT 10SM FEW200 36/08 A2986
KIWA 080350Z 02004KT 10SM FEW200 37/07 A2984
KIWA 080150Z 36007KT 10SM PO FEW200 40/08 A2981
KIWA 080047Z 32009KT 10SM FEW200 41/08 A2981
KIWA 072355Z VRB04KT 10SM PO FEW200 40/09 A2982
KIWA 072250Z 35004KT 10SM PO FEW200 40/08 A2983
KIWA 072150Z 25006KT 10SM PO FEW200 40/07 A2986
KIWA 072050Z 00000KT 10SM FEW200 39/07 A2988
KIWA 071847Z 30005KT 10SM FEW200 38/07 A2991
KIWA 071650Z 00000KT 10SM SKC 36/08 A2993
KIWA 071547Z 16004KT 10SM SKC 34/08 A2992
KIWA 071500Z 13006KT 10SM SKC 32/10 A2992
KIWA 071347Z 12006KT 10SM FEW150 28/08 A2989
KIWA 071250Z 09007KT 10SM FEW250 26/07 A2987
KIWA 071150Z 13006KT 10SM SCT250 26/08 A2985
KIWA 071135Z AUTO 13007KT 10SM CLR 27/06 A2984 RMK AO2 T02680055
KIWA 071115Z AUTO 12008KT 10SM CLR 28/04 A2984 RMK AO2 T02760040
KIWA 071055Z AUTO 11007KT 10SM CLR 28/04 A2983 RMK AO2 T02780036
KIWA 071035Z AUTO 10008KT 10SM CLR 27/04 A2983 RMK AO2 T02720040
KIWA 071015Z AUTO 09010KT 10SM CLR 27/04 A2982 RMK AO2 T02700037